sensor_id;sensor_type;location;lat;lon;timestamp;pressure;altitude;pressure_sealevel;temperature;humidity
51123;BME280;37162;41.724;13.346;2022-12-07T00:01:06;96375.97;;;17.47;63.15
51123;BME280;37162;41.724;13.346;2022-12-07T00:03:32;96375.97;;;17.47;62.69
51123;BME280;37162;41.724;13.346;2022-12-07T00:05:58;96357.84;;;17.37;62.84
51123;BME280;37162;41.724;13.346;2022-12-07T00:08:24;96370.59;;;17.47;62.72
51123;BME280;37162;41.724;13.346;2022-12-07T00:10:50;96368.72;;;17.47;62.74
51123;BME280;37162;41.724;13.346;2022-12-07T00:13:15;96363.59;;;17.46;62.79
51123;BME280;37162;41.724;13.346;2022-12-07T00:15:40;96352.75;;;17.41;62.77
51123;BME280;37162;41.724;13.346;2022-12-07T00:18:06;96356.38;;;17.46;62.87
51123;BME280;37162;41.724;13.346;2022-12-07T00:20:31;96346.44;;;17.47;62.61
51123;BME280;37162;41.724;13.346;2022-12-07T00:22:58;96345.63;;;17.46;63.00
51123;BME280;37162;41.724;13.346;2022-12-07T00:25:23;96345.63;;;17.46;62.74
51123;BME280;37162;41.724;13.346;2022-12-07T00:27:49;96343.75;;;17.47;62.85
51123;BME280;37162;41.724;13.346;2022-12-07T00:30:14;96342.94;;;17.46;62.97
51123;BME280;37162;41.724;13.346;2022-12-07T00:32:40;96334.06;;;17.46;62.88
51123;BME280;37162;41.724;13.346;2022-12-07T00:35:06;96331.88;;;17.43;62.71
51123;BME280;37162;41.724;13.346;2022-12-07T00:37:31;96340.25;;;17.46;62.75
51123;BME280;37162;41.724;13.346;2022-12-07T00:39:56;96338.38;;;17.47;62.97
51123;BME280;37162;41.724;13.346;2022-12-07T00:42:22;96335.69;;;17.47;62.97
51123;BME280;37162;41.724;13.346;2022-12-07T00:44:47;96333.00;;;17.47;62.89
51123;BME280;37162;41.724;13.346;2022-12-07T00:47:13;96331.13;;;17.47;63.04
51123;BME280;37162;41.724;13.346;2022-12-07T00:49:38;96331.13;;;17.47;63.18
51123;BME280;37162;41.724;13.346;2022-12-07T00:52:03;96335.44;;;17.48;63.47
51123;BME280;37162;41.724;13.346;2022-12-07T00:54:29;96331.13;;;17.47;63.11
51123;BME280;37162;41.724;13.346;2022-12-07T00:56:54;96329.25;;;17.48;63.24
51123;BME280;37162;41.724;13.346;2022-12-07T00:59:20;96318.50;;;17.48;63.02
51123;BME280;37162;41.724;13.346;2022-12-07T01:01:45;96318.50;;;17.48;63.13
51123;BME280;37162;41.724;13.346;2022-12-07T01:04:11;96314.22;;;17.47;62.97
51123;BME280;37162;41.724;13.346;2022-12-07T01:06:36;96314.22;;;17.47;62.84
51123;BME280;37162;41.724;13.346;2022-12-07T01:09:02;96310.72;;;17.46;62.63
51123;BME280;37162;41.724;13.346;2022-12-07T01:11:29;96304.53;;;17.46;62.83
51123;BME280;37162;41.724;13.346;2022-12-07T01:13:56;96306.06;;;17.42;62.82
51123;BME280;37162;41.724;13.346;2022-12-07T01:16:24;96315.28;;;17.46;62.66
51123;BME280;37162;41.724;13.346;2022-12-07T01:18:55;96312.59;;;17.46;62.79
51123;BME280;37162;41.724;13.346;2022-12-07T01:21:26;96315.28;;;17.46;62.79
51123;BME280;37162;41.724;13.346;2022-12-07T01:23:52;96310.13;;;17.44;62.50
51123;BME280;37162;41.724;13.346;2022-12-07T01:26:21;96313.63;;;17.45;62.84
51123;BME280;37162;41.724;13.346;2022-12-07T01:28:47;96315.75;;;17.43;62.67
51123;BME280;37162;41.724;13.346;2022-12-07T01:31:18;96305.00;;;17.43;62.69
51123;BME280;37162;41.724;13.346;2022-12-07T01:33:46;96313.06;;;17.43;62.68
51123;BME280;37162;41.724;13.346;2022-12-07T01:36:27;96316.56;;;17.43;62.74
51123;BME280;37162;41.724;13.346;2022-12-07T01:38:58;96313.31;;;17.41;63.06
51123;BME280;37162;41.724;13.346;2022-12-07T01:41:28;96307.69;;;17.43;63.40
51123;BME280;37162;41.724;13.346;2022-12-07T01:44:17;96308.75;;;17.42;63.20
51123;BME280;37162;41.724;13.346;2022-12-07T01:49:16;96303.88;;;17.38;62.62
51123;BME280;37162;41.724;13.346;2022-12-07T01:51:43;96311.69;;;17.40;62.72
51123;BME280;37162;41.724;13.346;2022-12-07T01:54:11;96310.63;;;17.41;62.89
51123;BME280;37162;41.724;13.346;2022-12-07T01:56:39;96302.59;;;17.41;63.12
51123;BME280;37162;41.724;13.346;2022-12-07T01:59:07;96286.06;;;17.32;63.08
51123;BME280;37162;41.724;13.346;2022-12-07T02:01:33;96299.91;;;17.41;63.00
51123;BME280;37162;41.724;13.346;2022-12-07T02:03:58;96301.75;;;17.41;62.89
51123;BME280;37162;41.724;13.346;2022-12-07T02:06:25;96296.38;;;17.41;62.56
51123;BME280;37162;41.724;13.346;2022-12-07T02:08:51;96296.38;;;17.41;62.82
51123;BME280;37162;41.724;13.346;2022-12-07T02:11:17;96291.00;;;17.41;62.94
51123;BME280;37162;41.724;13.346;2022-12-07T02:13:44;96283.78;;;17.41;62.75
51123;BME280;37162;41.724;13.346;2022-12-07T02:30:17;96281.31;;;17.40;62.82
51123;BME280;37162;41.724;13.346;2022-12-07T02:32:26;96287.50;;;17.40;62.90
51123;BME280;37162;41.724;13.346;2022-12-07T02:35:03;96287.50;;;17.40;63.10
51123;BME280;37162;41.724;13.346;2022-12-07T02:42:47;96268.34;;;17.31;63.19
51123;BME280;37162;41.724;13.346;2022-12-07T02:45:17;96274.06;;;17.40;63.09
51123;BME280;37162;41.724;13.346;2022-12-07T02:47:45;96269.53;;;17.41;63.13
51123;BME280;37162;41.724;13.346;2022-12-07T02:50:13;96257.34;;;17.33;63.01
51123;BME280;37162;41.724;13.346;2022-12-07T02:52:39;96267.66;;;17.41;63.06
51123;BME280;37162;41.724;13.346;2022-12-07T02:55:05;96259.63;;;17.41;62.75
51123;BME280;37162;41.724;13.346;2022-12-07T03:07:51;96256.09;;;17.41;62.56
51123;BME280;37162;41.724;13.346;2022-12-07T03:13:08;96257.97;;;17.40;62.70
51123;BME280;37162;41.724;13.346;2022-12-07T03:15:43;96249.91;;;17.40;62.76
51123;BME280;37162;41.724;13.346;2022-12-07T03:18:16;96249.09;;;17.40;62.62
51123;BME280;37162;41.724;13.346;2022-12-07T03:20:44;96254.47;;;17.40;62.66
51123;BME280;37162;41.724;13.346;2022-12-07T03:23:12;96257.16;;;17.40;62.77
51123;BME280;37162;41.724;13.346;2022-12-07T03:25:45;96252.84;;;17.38;62.83
51123;BME280;37162;41.724;13.346;2022-12-07T03:28:14;96251.25;;;17.37;63.04
51123;BME280;37162;41.724;13.346;2022-12-07T03:30:46;96256.09;;;17.41;62.95
51123;BME280;37162;41.724;13.346;2022-12-07T03:33:27;96259.63;;;17.41;63.18
51123;BME280;37162;41.724;13.346;2022-12-07T03:36:01;96234.47;;;17.30;62.97
51123;BME280;37162;41.724;13.346;2022-12-07T03:38:46;96248.88;;;17.41;63.04
51123;BME280;37162;41.724;13.346;2022-12-07T03:41:23;96236.75;;;17.38;63.08
51123;BME280;37162;41.724;13.346;2022-12-07T03:43:50;96248.03;;;17.41;62.89
51123;BME280;37162;41.724;13.346;2022-12-07T03:46:37;96245.34;;;17.41;62.72
51123;BME280;37162;41.724;13.346;2022-12-07T03:49:14;96231.13;;;17.40;62.80
51123;BME280;37162;41.724;13.346;2022-12-07T03:57:26;96238.38;;;17.40;62.87
51123;BME280;37162;41.724;13.346;2022-12-07T03:59:55;96232.19;;;17.39;62.65
51123;BME280;37162;41.724;13.346;2022-12-07T04:02:21;96235.94;;;17.38;62.58
51123;BME280;37162;41.724;13.346;2022-12-07T04:04:48;96228.69;;;17.38;62.62
51123;BME280;37162;41.724;13.346;2022-12-07T04:07:14;96232.19;;;17.39;62.64
51123;BME280;37162;41.724;13.346;2022-12-07T04:09:39;96231.38;;;17.38;62.49
51123;BME280;37162;41.724;13.346;2022-12-07T04:12:05;96230.56;;;17.38;62.54
51123;BME280;37162;41.724;13.346;2022-12-07T04:14:30;96235.13;;;17.37;62.67
51123;BME280;37162;41.724;13.346;2022-12-07T04:16:57;96232.44;;;17.37;62.05
51123;BME280;37162;41.724;13.346;2022-12-07T04:19:25;96227.06;;;17.37;62.75
51123;BME280;37162;41.724;13.346;2022-12-07T04:21:51;96234.31;;;17.37;62.64
51123;BME280;37162;41.724;13.346;2022-12-07T04:24:17;96229.75;;;17.37;62.91
51123;BME280;37162;41.724;13.346;2022-12-07T04:26:43;96225.19;;;17.38;63.05
51123;BME280;37162;41.724;13.346;2022-12-07T04:29:09;96222.50;;;17.38;62.75
51123;BME280;37162;41.724;13.346;2022-12-07T04:31:35;96230.81;;;17.36;62.90
51123;BME280;37162;41.724;13.346;2022-12-07T04:34:02;96226.25;;;17.37;62.97
51123;BME280;37162;41.724;13.346;2022-12-07T04:36:28;96219.19;;;17.31;62.75
51123;BME280;37162;41.724;13.346;2022-12-07T04:38:54;96242.13;;;17.38;62.90
51123;BME280;37162;41.724;13.346;2022-12-07T04:41:20;96235.94;;;17.38;63.05
51123;BME280;37162;41.724;13.346;2022-12-07T04:46:22;96235.13;;;17.37;62.96
51123;BME280;37162;41.724;13.346;2022-12-07T04:48:48;96226.25;;;17.37;62.73
51123;BME280;37162;41.724;13.346;2022-12-07T04:51:15;96227.06;;;17.37;62.91
51123;BME280;37162;41.724;13.346;2022-12-07T04:53:43;96218.22;;;17.37;62.63
51123;BME280;37162;41.724;13.346;2022-12-07T04:56:08;96225.19;;;17.38;62.64
51123;BME280;37162;41.724;13.346;2022-12-07T04:58:34;96219.81;;;17.38;62.61
51123;BME280;37162;41.724;13.346;2022-12-07T05:00:59;96216.34;;;17.37;62.58
51123;BME280;37162;41.724;13.346;2022-12-07T05:03:25;96208.75;;;17.34;62.40
51123;BME280;37162;41.724;13.346;2022-12-07T05:05:50;96213.66;;;17.37;62.59
51123;BME280;37162;41.724;13.346;2022-12-07T05:08:15;96213.66;;;17.37;62.42
51123;BME280;37162;41.724;13.346;2022-12-07T05:10:41;96217.94;;;17.38;62.60
51123;BME280;37162;41.724;13.346;2022-12-07T05:13:06;96214.47;;;17.38;62.68
51123;BME280;37162;41.724;13.346;2022-12-07T05:15:32;96219.81;;;17.38;62.78
51123;BME280;37162;41.724;13.346;2022-12-07T05:17:57;96226.00;;;17.38;62.92
51123;BME280;37162;41.724;13.346;2022-12-07T05:20:23;96222.25;;;17.40;62.83
51123;BME280;37162;41.724;13.346;2022-12-07T05:22:48;96233.00;;;17.40;63.14
51123;BME280;37162;41.724;13.346;2022-12-07T05:25:13;96232.19;;;17.39;62.74
51123;BME280;37162;41.724;13.346;2022-12-07T05:27:39;96233.00;;;17.40;62.86
51123;BME280;37162;41.724;13.346;2022-12-07T05:30:05;96237.56;;;17.39;62.98
51123;BME280;37162;41.724;13.346;2022-12-07T05:32:30;96237.56;;;17.39;62.54
51123;BME280;37162;41.724;13.346;2022-12-07T05:34:56;96244.81;;;17.38;62.64
51123;BME280;37162;41.724;13.346;2022-12-07T05:37:21;96230.56;;;17.38;62.67
51123;BME280;37162;41.724;13.346;2022-12-07T05:39:47;96235.94;;;17.38;62.78
51123;BME280;37162;41.724;13.346;2022-12-07T05:42:12;96231.63;;;17.37;62.57
51123;BME280;37162;41.724;13.346;2022-12-07T05:44:45;96232.44;;;17.37;62.71
51123;BME280;37162;41.724;13.346;2022-12-07T05:47:12;96236.75;;;17.38;62.70
51123;BME280;37162;41.724;13.346;2022-12-07T05:49:38;96238.63;;;17.38;62.61
51123;BME280;37162;41.724;13.346;2022-12-07T05:52:04;96236.19;;;17.36;62.44
51123;BME280;37162;41.724;13.346;2022-12-07T05:54:29;96231.31;;;17.33;62.59
51123;BME280;37162;41.724;13.346;2022-12-07T05:56:55;96238.03;;;17.36;62.56
51123;BME280;37162;41.724;13.346;2022-12-07T05:59:20;96240.72;;;17.36;62.60
51123;BME280;37162;41.724;13.346;2022-12-07T06:01:50;96238.03;;;17.36;62.39
51123;BME280;37162;41.724;13.346;2022-12-07T06:04:16;96240.72;;;17.36;62.69
51123;BME280;37162;41.724;13.346;2022-12-07T06:06:41;96229.97;;;17.36;62.75
51123;BME280;37162;41.724;13.346;2022-12-07T06:09:07;96241.78;;;17.35;62.68
51123;BME280;37162;41.724;13.346;2022-12-07T06:11:32;96239.38;;;17.33;63.02
51123;BME280;37162;41.724;13.346;2022-12-07T06:14:16;96232.38;;;17.32;62.95
51123;BME280;37162;41.724;13.346;2022-12-07T06:16:42;96232.94;;;17.34;62.98
51123;BME280;37162;41.724;13.346;2022-12-07T06:19:07;96238.31;;;17.34;62.92
51123;BME280;37162;41.724;13.346;2022-12-07T06:21:33;96229.84;;;17.26;62.79
51123;BME280;37162;41.724;13.346;2022-12-07T06:23:59;96240.16;;;17.34;62.85
51123;BME280;37162;41.724;13.346;2022-12-07T06:26:24;96240.16;;;17.34;62.76
51123;BME280;37162;41.724;13.346;2022-12-07T06:28:50;96235.63;;;17.34;62.64
51123;BME280;37162;41.724;13.346;2022-12-07T06:31:15;96240.16;;;17.34;62.68
51123;BME280;37162;41.724;13.346;2022-12-07T06:33:41;96244.72;;;17.33;62.48
51123;BME280;37162;41.724;13.346;2022-12-07T06:36:08;96224.75;;;17.24;62.55
51123;BME280;37162;41.724;13.346;2022-12-07T06:38:33;96235.88;;;17.33;62.51
51123;BME280;37162;41.724;13.346;2022-12-07T06:40:58;96239.63;;;17.32;62.43
51123;BME280;37162;41.724;13.346;2022-12-07T06:43:24;96237.75;;;17.32;62.63
51123;BME280;37162;41.724;13.346;2022-12-07T06:45:49;96242.31;;;17.32;62.54
51123;BME280;37162;41.724;13.346;2022-12-07T06:48:15;96245.81;;;17.32;62.42
51123;BME280;37162;41.724;13.346;2022-12-07T06:50:43;96250.38;;;17.32;62.49
51123;BME280;37162;41.724;13.346;2022-12-07T06:53:09;96252.25;;;17.31;62.47
51123;BME280;37162;41.724;13.346;2022-12-07T06:55:35;96252.25;;;17.31;62.50
51123;BME280;37162;41.724;13.346;2022-12-07T06:58:00;96247.59;;;17.27;62.53
51123;BME280;37162;41.724;13.346;2022-12-07T07:00:26;96247.34;;;17.28;62.37
51123;BME280;37162;41.724;13.346;2022-12-07T07:02:52;96255.16;;;17.30;62.50
51123;BME280;37162;41.724;13.346;2022-12-07T07:05:18;96257.03;;;17.29;62.46
51123;BME280;37162;41.724;13.346;2022-12-07T07:07:46;96254.66;;;17.33;62.32
51123;BME280;37162;41.724;13.346;2022-12-07T07:10:13;96260.59;;;17.35;62.63
51123;BME280;37162;41.724;13.346;2022-12-07T07:12:38;96254.16;;;17.36;62.47
51123;BME280;37162;41.724;13.346;2022-12-07T07:15:04;96248.16;;;17.29;62.32
51123;BME280;37162;41.724;13.346;2022-12-07T07:17:30;96257.16;;;17.40;62.48
51123;BME280;37162;41.724;13.346;2022-12-07T07:19:55;96254.25;;;17.41;62.80
51123;BME280;37162;41.724;13.346;2022-12-07T07:22:20;96257.22;;;17.45;62.82
51123;BME280;37162;41.724;13.346;2022-12-07T07:24:46;96250.81;;;17.46;62.69
51123;BME280;37162;41.724;13.346;2022-12-07T07:27:11;96254.88;;;17.48;62.17
51123;BME280;37162;41.724;13.346;2022-12-07T07:29:37;96250.88;;;17.51;62.02
51123;BME280;37162;41.724;13.346;2022-12-07T07:32:02;96257.34;;;17.55;61.96
51123;BME280;37162;41.724;13.346;2022-12-07T07:34:27;96249.88;;;17.57;61.48
51123;BME280;37162;41.724;13.346;2022-12-07T07:36:53;96252.88;;;17.60;61.09
51123;BME280;37162;41.724;13.346;2022-12-07T07:39:18;96254.00;;;17.65;60.97
51123;BME280;37162;41.724;13.346;2022-12-07T07:41:44;96255.94;;;17.69;61.04
51123;BME280;37162;41.724;13.346;2022-12-07T07:44:09;96258.13;;;17.72;61.08
51123;BME280;37162;41.724;13.346;2022-12-07T07:46:35;96258.47;;;17.76;60.85
51123;BME280;37162;41.724;13.346;2022-12-07T07:49:01;96264.97;;;17.80;60.88
51123;BME280;37162;41.724;13.346;2022-12-07T07:51:26;96261.75;;;17.83;60.84
51123;BME280;37162;41.724;13.346;2022-12-07T07:53:51;96260.22;;;17.87;60.68
51123;BME280;37162;41.724;13.346;2022-12-07T07:56:20;96254.06;;;17.92;60.78
51123;BME280;37162;41.724;13.346;2022-12-07T07:58:45;96246.59;;;17.94;60.55
51123;BME280;37162;41.724;13.346;2022-12-07T08:01:11;96248.28;;;18.00;60.52
51123;BME280;37162;41.724;13.346;2022-12-07T08:03:39;96239.88;;;17.96;60.67
51123;BME280;37162;41.724;13.346;2022-12-07T08:06:04;96238.31;;;18.00;60.77
51123;BME280;37162;41.724;13.346;2022-12-07T08:08:30;96251.63;;;18.12;60.59
51123;BME280;37162;41.724;13.346;2022-12-07T08:10:55;96251.13;;;18.15;60.67
51123;BME280;37162;41.724;13.346;2022-12-07T08:13:21;96253.31;;;18.18;60.71
51123;BME280;37162;41.724;13.346;2022-12-07T08:15:47;96256.34;;;18.27;60.13
51123;BME280;37162;41.724;13.346;2022-12-07T08:18:15;96259.63;;;18.34;59.77
51123;BME280;37162;41.724;13.346;2022-12-07T08:20:41;96258.34;;;18.36;59.25
51123;BME280;37162;41.724;13.346;2022-12-07T08:23:11;96257.31;;;18.43;58.65
51123;BME280;37162;41.724;13.346;2022-12-07T08:25:37;96256.53;;;18.47;57.99
51123;BME280;37162;41.724;13.346;2022-12-07T08:28:02;96256.06;;;18.50;57.45
51123;BME280;37162;41.724;13.346;2022-12-07T08:30:28;96263.84;;;18.52;56.76
51123;BME280;37162;41.724;13.346;2022-12-07T08:32:55;96258.16;;;18.48;56.57
51123;BME280;37162;41.724;13.346;2022-12-07T08:35:21;96268.91;;;18.48;56.05
51123;BME280;37162;41.724;13.346;2022-12-07T08:37:46;96251.66;;;18.44;56.21
51123;BME280;37162;41.724;13.346;2022-12-07T08:40:12;96266.50;;;18.47;56.36
51123;BME280;37162;41.724;13.346;2022-12-07T08:42:51;96271.38;;;18.50;55.91
51123;BME280;37162;41.724;13.346;2022-12-07T08:45:17;96269.72;;;18.49;55.56
51123;BME280;37162;41.724;13.346;2022-12-07T08:48:05;96272.41;;;18.49;55.46
51123;BME280;37162;41.724;13.346;2022-12-07T08:50:32;96268.91;;;18.48;55.66
51123;BME280;37162;41.724;13.346;2022-12-07T08:52:58;96270.56;;;18.49;55.78
51123;BME280;37162;41.724;13.346;2022-12-07T08:55:25;96271.13;;;18.51;56.12
51123;BME280;37162;41.724;13.346;2022-12-07T08:57:51;96268.97;;;18.53;56.15
51123;BME280;37162;41.724;13.346;2022-12-07T09:00:17;96275.47;;;18.57;56.50
51123;BME280;37162;41.724;13.346;2022-12-07T09:02:44;96270.41;;;18.61;56.68
51123;BME280;37162;41.724;13.346;2022-12-07T09:05:10;96262.28;;;18.56;56.70
51123;BME280;37162;41.724;13.346;2022-12-07T09:07:36;96275.81;;;18.66;56.51
51123;BME280;37162;41.724;13.346;2022-12-07T09:10:04;96268.78;;;18.60;55.83
51123;BME280;37162;41.724;13.346;2022-12-07T09:12:31;96274.16;;;18.60;54.93
51123;BME280;37162;41.724;13.346;2022-12-07T09:14:56;96282.78;;;18.62;55.18
51123;BME280;37162;41.724;13.346;2022-12-07T09:17:22;96288.47;;;18.65;55.94
51123;BME280;37162;41.724;13.346;2022-12-07T09:19:47;96276.63;;;18.67;56.47
51123;BME280;37162;41.724;13.346;2022-12-07T09:22:13;96274.28;;;18.70;56.67
51123;BME280;37162;41.724;13.346;2022-12-07T09:24:38;96257.97;;;18.55;56.86
51123;BME280;37162;41.724;13.346;2022-12-07T09:27:04;96280.50;;;18.76;56.98
51123;BME280;37162;41.724;13.346;2022-12-07T09:29:29;96278.41;;;18.78;57.07
51123;BME280;37162;41.724;13.346;2022-12-07T09:31:55;96275.16;;;18.81;57.12
51123;BME280;37162;41.724;13.346;2022-12-07T09:34:20;96263.56;;;18.75;56.73
51123;BME280;37162;41.724;13.346;2022-12-07T09:36:46;96278.66;;;18.81;55.78
51123;BME280;37162;41.724;13.346;2022-12-07T09:39:12;96261.13;;;18.74;55.75
51123;BME280;37162;41.724;13.346;2022-12-07T09:41:39;96274.16;;;18.87;56.49
51123;BME280;37162;41.724;13.346;2022-12-07T09:44:16;96276.31;;;18.90;56.80
51123;BME280;37162;41.724;13.346;2022-12-07T09:46:44;96274.75;;;18.94;57.17
51123;BME280;37162;41.724;13.346;2022-12-07T09:49:18;96268.84;;;18.97;57.13
51123;BME280;37162;41.724;13.346;2022-12-07T09:51:45;96258.63;;;18.99;57.39
51123;BME280;37162;41.724;13.346;2022-12-07T09:54:16;96271.84;;;19.01;55.23
51123;BME280;37162;41.724;13.346;2022-12-07T09:56:43;96273.69;;;19.00;55.90
51123;BME280;37162;41.724;13.346;2022-12-07T09:59:17;96266.50;;;19.06;56.97
51123;BME280;37162;41.724;13.346;2022-12-07T10:01:45;96271.63;;;19.07;56.37
51123;BME280;37162;41.724;13.346;2022-12-07T10:04:16;96260.06;;;19.12;56.86
51123;BME280;37162;41.724;13.346;2022-12-07T10:06:43;96267.09;;;19.18;57.14
51123;BME280;37162;41.724;13.346;2022-12-07T10:09:12;96262.56;;;19.24;57.43
51123;BME280;37162;41.724;13.346;2022-12-07T10:12:07;96255.34;;;19.29;57.26
51123;BME280;37162;41.724;13.346;2022-12-07T10:14:53;96261.00;;;19.33;57.17
51123;BME280;37162;41.724;13.346;2022-12-07T10:17:33;96242.44;;;19.36;57.09
51123;BME280;37162;41.724;13.346;2022-12-07T10:22:37;96241.38;;;19.42;57.32
51123;BME280;37162;41.724;13.346;2022-12-07T10:25:18;96235.50;;;19.46;57.29
51123;BME280;37162;41.724;13.346;2022-12-07T10:27:57;96223.06;;;19.39;57.02
51123;BME280;37162;41.724;13.346;2022-12-07T10:30:22;96236.31;;;19.51;56.85
51123;BME280;37162;41.724;13.346;2022-12-07T10:32:48;96237.69;;;19.54;56.76
51123;BME280;37162;41.724;13.346;2022-12-07T10:35:27;96237.16;;;19.57;56.67
51123;BME280;37162;41.724;13.346;2022-12-07T10:37:57;96222.63;;;19.58;56.30
51123;BME280;37162;41.724;13.346;2022-12-07T10:48:50;96227.25;;;19.62;53.12
51123;BME280;37162;41.724;13.346;2022-12-07T10:51:10;96225.38;;;19.63;51.79
51123;BME280;37162;41.724;13.346;2022-12-07T10:53:46;96222.13;;;19.66;51.60
51123;BME280;37162;41.724;13.346;2022-12-07T10:56:42;96222.94;;;19.66;51.01
51123;BME280;37162;41.724;13.346;2022-12-07T11:13:32;96206.75;;;19.61;53.59
51123;BME280;37162;41.724;13.346;2022-12-07T11:17:01;96209.22;;;19.68;54.23
51123;BME280;37162;41.724;13.346;2022-12-07T11:21:58;96207.63;;;19.72;54.63
51123;BME280;37162;41.724;13.346;2022-12-07T11:32:49;96192.25;;;19.68;54.33
51123;BME280;37162;41.724;13.346;2022-12-07T11:38:18;96179.59;;;19.73;54.80
51123;BME280;37162;41.724;13.346;2022-12-07T11:40:49;96178.78;;;19.73;54.98
51123;BME280;37162;41.724;13.346;2022-12-07T11:43:32;96180.69;;;19.72;55.13
51123;BME280;37162;41.724;13.346;2022-12-07T11:46:04;96171.50;;;19.68;55.08
51123;BME280;37162;41.724;13.346;2022-12-07T11:51:07;96170.66;;;19.62;55.15
51123;BME280;37162;41.724;13.346;2022-12-07T11:53:40;96170.34;;;19.59;55.06
51123;BME280;37162;41.724;13.346;2022-12-07T12:03:47;96157.63;;;19.39;55.46
51123;BME280;37162;41.724;13.346;2022-12-07T12:06:13;96151.13;;;19.35;55.56
51123;BME280;37162;41.724;13.346;2022-12-07T12:08:48;96157.31;;;19.30;55.59
51123;BME280;37162;41.724;13.346;2022-12-07T12:22:06;96143.19;;;19.08;56.12
51123;BME280;37162;41.724;13.346;2022-12-07T12:24:37;96126.72;;;18.99;56.30
51123;BME280;37162;41.724;13.346;2022-12-07T12:27:08;96138.28;;;19.00;56.48
51123;BME280;37162;41.724;13.346;2022-12-07T12:29:39;96137.19;;;18.96;56.59
51123;BME280;37162;41.724;13.346;2022-12-07T12:32:17;96128.28;;;18.90;56.67
51123;BME280;37162;41.724;13.346;2022-12-07T12:42:48;96123.31;;;18.72;57.26
51123;BME280;37162;41.724;13.346;2022-12-07T12:45:31;96105.16;;;18.57;57.31
51123;BME280;37162;41.724;13.346;2022-12-07T12:48:00;96126.50;;;18.63;57.56
51123;BME280;37162;41.724;13.346;2022-12-07T12:50:29;96128.88;;;18.60;57.68
51123;BME280;37162;41.724;13.346;2022-12-07T12:53:01;96127.50;;;18.57;57.82
51123;BME280;37162;41.724;13.346;2022-12-07T13:00:46;96114.47;;;18.39;58.18
51123;BME280;37162;41.724;13.346;2022-12-07T13:03:28;96123.34;;;18.39;58.09
51123;BME280;37162;41.724;13.346;2022-12-07T13:08:55;96116.31;;;18.33;58.13
51123;BME280;37162;41.724;13.346;2022-12-07T13:11:41;96117.66;;;18.31;58.59
51123;BME280;37162;41.724;13.346;2022-12-07T13:17:08;96103.31;;;18.25;59.12
51123;BME280;37162;41.724;13.346;2022-12-07T13:27:30;96107.28;;;18.12;59.61
51123;BME280;37162;41.724;13.346;2022-12-07T13:29:56;96099.66;;;18.04;59.86
51123;BME280;37162;41.724;13.346;2022-12-07T13:32:25;96107.25;;;18.07;59.88
51123;BME280;37162;41.724;13.346;2022-12-07T13:34:50;96104.78;;;18.06;59.85
51123;BME280;37162;41.724;13.346;2022-12-07T13:37:30;96098.56;;;18.00;60.12
51123;BME280;37162;41.724;13.346;2022-12-07T13:39:59;96105.50;;;17.96;60.25
51123;BME280;37162;41.724;13.346;2022-12-07T13:44:52;96106.28;;;17.92;60.11
51123;BME280;37162;41.724;13.346;2022-12-07T13:47:34;96106.56;;;17.95;60.21
51123;BME280;37162;41.724;13.346;2022-12-07T13:50:20;96110.34;;;17.94;60.21
51123;BME280;37162;41.724;13.346;2022-12-07T13:52:47;96105.16;;;17.87;60.53
51123;BME280;37162;41.724;13.346;2022-12-07T13:55:16;96116.78;;;17.93;60.65
51123;BME280;37162;41.724;13.346;2022-12-07T13:57:50;96103.53;;;17.86;61.00
51123;BME280;37162;41.724;13.346;2022-12-07T14:00:22;96110.03;;;17.91;60.99
51123;BME280;37162;41.724;13.346;2022-12-07T14:05:26;96116.47;;;17.90;61.48
51123;BME280;37162;41.724;13.346;2022-12-07T14:10:38;96108.69;;;17.88;61.54
51123;BME280;37162;41.724;13.346;2022-12-07T14:16:36;96120.72;;;17.85;61.29
51123;BME280;37162;41.724;13.346;2022-12-07T14:22:20;96116.94;;;17.81;61.29
51123;BME280;37162;41.724;13.346;2022-12-07T14:24:46;96120.44;;;17.82;61.37
51123;BME280;37162;41.724;13.346;2022-12-07T14:27:20;96125.00;;;17.81;61.52
51123;BME280;37162;41.724;13.346;2022-12-07T14:29:47;96115.25;;;17.75;61.28
51123;BME280;37162;41.724;13.346;2022-12-07T14:32:27;96126.88;;;17.81;61.25
51123;BME280;37162;41.724;13.346;2022-12-07T14:37:33;96120.94;;;17.79;61.31
51123;BME280;37162;41.724;13.346;2022-12-07T14:39:59;96115.81;;;17.77;61.16
51123;BME280;37162;41.724;13.346;2022-12-07T14:42:27;96121.19;;;17.77;61.34
51123;BME280;37162;41.724;13.346;2022-12-07T14:44:54;96121.19;;;17.77;61.41
51123;BME280;37162;41.724;13.346;2022-12-07T14:47:19;96123.06;;;17.77;61.55
51123;BME280;37162;41.724;13.346;2022-12-07T14:49:45;96118.50;;;17.77;61.84
51123;BME280;37162;41.724;13.346;2022-12-07T14:52:17;96116.88;;;17.76;61.98
51123;BME280;37162;41.724;13.346;2022-12-07T14:54:44;96131.13;;;17.77;62.18
51123;BME280;37162;41.724;13.346;2022-12-07T14:57:10;96125.75;;;17.77;62.08
51123;BME280;37162;41.724;13.346;2022-12-07T14:59:36;96127.63;;;17.76;62.08
51123;BME280;37162;41.724;13.346;2022-12-07T15:02:02;96128.69;;;17.75;62.29
51123;BME280;37162;41.724;13.346;2022-12-07T15:04:27;96130.56;;;17.75;62.13
51123;BME280;37162;41.724;13.346;2022-12-07T15:07:02;96128.69;;;17.75;62.42
51123;BME280;37162;41.724;13.346;2022-12-07T15:09:28;96126.16;;;17.69;62.04
51123;BME280;37162;41.724;13.346;2022-12-07T15:11:54;96137.03;;;17.74;62.07
51123;BME280;37162;41.724;13.346;2022-12-07T15:14:19;96121.06;;;17.67;62.26
51123;BME280;37162;41.724;13.346;2022-12-07T15:16:45;96139.72;;;17.74;62.24
51123;BME280;37162;41.724;13.346;2022-12-07T15:19:16;96140.53;;;17.74;62.07
51123;BME280;37162;41.724;13.346;2022-12-07T15:21:42;96136.19;;;17.73;62.28
51123;BME280;37162;41.724;13.346;2022-12-07T15:24:10;96141.56;;;17.73;62.25